sensor_id;sensor_type;location;lat;lon;timestamp;P1;durP1;ratioP1;P2;durP2;ratioP2
78563;SDS011;67856;47.754;19.088;2023-04-03T00:01:58;0.88;;;0.55;;
78563;SDS011;67856;47.754;19.088;2023-04-03T00:05:17;0.70;;;0.60;;
78563;SDS011;67856;47.754;19.088;2023-04-03T00:08:37;0.90;;;0.70;;
78563;SDS011;67856;47.754;19.088;2023-04-03T00:11:58;0.80;;;0.57;;
78563;SDS011;67856;47.754;19.088;2023-04-03T00:15:17;0.70;;;0.50;;
78563;SDS011;67856;47.754;19.088;2023-04-03T00:18:38;0.90;;;0.60;;
78563;SDS011;67856;47.754;19.088;2023-04-03T00:21:58;1.08;;;0.70;;
78563;SDS011;67856;47.754;19.088;2023-04-03T00:25:19;0.73;;;0.55;;
78563;SDS011;67856;47.754;19.088;2023-04-03T00:28:39;0.87;;;0.63;;
78563;SDS011;67856;47.754;19.088;2023-04-03T00:31:58;0.60;;;0.40;;
78563;SDS011;67856;47.754;19.088;2023-04-03T00:35:18;0.93;;;0.70;;
78563;SDS011;67856;47.754;19.088;2023-04-03T00:38:39;1.00;;;0.60;;
78563;SDS011;67856;47.754;19.088;2023-04-03T00:41:58;0.93;;;0.60;;
78563;SDS011;67856;47.754;19.088;2023-04-03T00:45:26;0.90;;;0.80;;
78563;SDS011;67856;47.754;19.088;2023-04-03T00:48:54;1.40;;;0.70;;
78563;SDS011;67856;47.754;19.088;2023-04-03T00:52:15;1.08;;;0.60;;
78563;SDS011;67856;47.754;19.088;2023-04-03T00:55:36;0.90;;;0.65;;
78563;SDS011;67856;47.754;19.088;2023-04-03T00:58:59;1.05;;;0.70;;
78563;SDS011;67856;47.754;19.088;2023-04-03T01:02:24;1.00;;;0.80;;
78563;SDS011;67856;47.754;19.088;2023-04-03T01:05:46;0.63;;;0.50;;
78563;SDS011;67856;47.754;19.088;2023-04-03T01:09:07;1.10;;;0.77;;
78563;SDS011;67856;47.754;19.088;2023-04-03T01:12:28;0.90;;;0.60;;
78563;SDS011;67856;47.754;19.088;2023-04-03T01:15:49;1.42;;;0.85;;
78563;SDS011;67856;47.754;19.088;2023-04-03T01:19:13;0.60;;;0.40;;
78563;SDS011;67856;47.754;19.088;2023-04-03T01:22:38;0.80;;;0.60;;
78563;SDS011;67856;47.754;19.088;2023-04-03T01:26:14;0.90;;;0.60;;
78563;SDS011;67856;47.754;19.088;2023-04-03T01:29:35;0.90;;;0.60;;
78563;SDS011;67856;47.754;19.088;2023-04-03T01:32:55;0.95;;;0.50;;
78563;SDS011;67856;47.754;19.088;2023-04-03T01:36:21;1.03;;;0.80;;
78563;SDS011;67856;47.754;19.088;2023-04-03T01:39:43;0.87;;;0.60;;
78563;SDS011;67856;47.754;19.088;2023-04-03T01:43:03;0.93;;;0.52;;
78563;SDS011;67856;47.754;19.088;2023-04-03T01:46:24;1.20;;;0.80;;
78563;SDS011;67856;47.754;19.088;2023-04-03T01:49:44;1.10;;;0.75;;
78563;SDS011;67856;47.754;19.088;2023-04-03T01:53:07;0.80;;;0.53;;
78563;SDS011;67856;47.754;19.088;2023-04-03T01:56:28;0.87;;;0.60;;
78563;SDS011;67856;47.754;19.088;2023-04-03T01:59:48;0.80;;;0.68;;
78563;SDS011;67856;47.754;19.088;2023-04-03T02:03:13;0.80;;;0.50;;
78563;SDS011;67856;47.754;19.088;2023-04-03T02:06:34;0.85;;;0.63;;
78563;SDS011;67856;47.754;19.088;2023-04-03T02:09:54;0.80;;;0.60;;
78563;SDS011;67856;47.754;19.088;2023-04-03T02:13:14;0.90;;;0.50;;
78563;SDS011;67856;47.754;19.088;2023-04-03T02:16:34;0.90;;;0.70;;
78563;SDS011;67856;47.754;19.088;2023-04-03T02:19:57;1.10;;;0.68;;
78563;SDS011;67856;47.754;19.088;2023-04-03T02:23:16;0.90;;;0.70;;
78563;SDS011;67856;47.754;19.088;2023-04-03T02:26:36;1.00;;;0.70;;
78563;SDS011;67856;47.754;19.088;2023-04-03T02:29:56;0.60;;;0.50;;
78563;SDS011;67856;47.754;19.088;2023-04-03T02:33:15;0.85;;;0.57;;
78563;SDS011;67856;47.754;19.088;2023-04-03T02:36:35;1.33;;;0.60;;
78563;SDS011;67856;47.754;19.088;2023-04-03T02:39:55;0.98;;;0.65;;
78563;SDS011;67856;47.754;19.088;2023-04-03T02:43:14;1.27;;;0.80;;
78563;SDS011;67856;47.754;19.088;2023-04-03T02:46:35;1.20;;;0.70;;
78563;SDS011;67856;47.754;19.088;2023-04-03T02:49:54;0.88;;;0.80;;
78563;SDS011;67856;47.754;19.088;2023-04-03T02:53:14;0.73;;;0.55;;
78563;SDS011;67856;47.754;19.088;2023-04-03T02:56:41;1.05;;;0.77;;
78563;SDS011;67856;47.754;19.088;2023-04-03T03:00:00;0.60;;;0.47;;
78563;SDS011;67856;47.754;19.088;2023-04-03T03:03:20;1.07;;;0.70;;
78563;SDS011;67856;47.754;19.088;2023-04-03T03:06:40;0.90;;;0.60;;
78563;SDS011;67856;47.754;19.088;2023-04-03T03:10:00;0.93;;;0.60;;
78563;SDS011;67856;47.754;19.088;2023-04-03T03:13:20;0.70;;;0.45;;
78563;SDS011;67856;47.754;19.088;2023-04-03T03:16:40;0.83;;;0.67;;
78563;SDS011;67856;47.754;19.088;2023-04-03T03:19:59;0.77;;;0.50;;
78563;SDS011;67856;47.754;19.088;2023-04-03T03:23:20;0.85;;;0.52;;
78563;SDS011;67856;47.754;19.088;2023-04-03T03:26:42;0.90;;;0.68;;
78563;SDS011;67856;47.754;19.088;2023-04-03T03:30:03;0.90;;;0.50;;
78563;SDS011;67856;47.754;19.088;2023-04-03T03:33:25;1.00;;;0.60;;
78563;SDS011;67856;47.754;19.088;2023-04-03T03:36:45;0.90;;;0.57;;
78563;SDS011;67856;47.754;19.088;2023-04-03T03:40:05;1.00;;;0.70;;
78563;SDS011;67856;47.754;19.088;2023-04-03T03:43:25;0.80;;;0.68;;
78563;SDS011;67856;47.754;19.088;2023-04-03T03:46:46;0.80;;;0.70;;
78563;SDS011;67856;47.754;19.088;2023-04-03T03:50:06;0.70;;;0.50;;
78563;SDS011;67856;47.754;19.088;2023-04-03T03:53:26;0.83;;;0.70;;
78563;SDS011;67856;47.754;19.088;2023-04-03T03:56:49;1.10;;;0.50;;
78563;SDS011;67856;47.754;19.088;2023-04-03T04:00:10;0.70;;;0.50;;
78563;SDS011;67856;47.754;19.088;2023-04-03T04:03:31;0.80;;;0.63;;
78563;SDS011;67856;47.754;19.088;2023-04-03T04:06:55;1.00;;;0.63;;
78563;SDS011;67856;47.754;19.088;2023-04-03T04:10:15;0.80;;;0.60;;
78563;SDS011;67856;47.754;19.088;2023-04-03T04:13:35;0.98;;;0.52;;
78563;SDS011;67856;47.754;19.088;2023-04-03T04:16:59;0.90;;;0.70;;
78563;SDS011;67856;47.754;19.088;2023-04-03T04:20:19;0.77;;;0.50;;
78563;SDS011;67856;47.754;19.088;2023-04-03T04:23:39;0.60;;;0.40;;
78563;SDS011;67856;47.754;19.088;2023-04-03T04:26:59;0.60;;;0.50;;
78563;SDS011;67856;47.754;19.088;2023-04-03T04:30:19;0.50;;;0.28;;
78563;SDS011;67856;47.754;19.088;2023-04-03T04:33:39;0.75;;;0.52;;
78563;SDS011;67856;47.754;19.088;2023-04-03T04:37:00;0.50;;;0.30;;
78563;SDS011;67856;47.754;19.088;2023-04-03T04:40:21;0.60;;;0.40;;
78563;SDS011;67856;47.754;19.088;2023-04-03T04:43:41;0.60;;;0.40;;
78563;SDS011;67856;47.754;19.088;2023-04-03T04:47:01;0.50;;;0.38;;
78563;SDS011;67856;47.754;19.088;2023-04-03T04:50:21;0.82;;;0.60;;
78563;SDS011;67856;47.754;19.088;2023-04-03T04:53:41;1.20;;;0.60;;
78563;SDS011;67856;47.754;19.088;2023-04-03T04:57:02;2.00;;;0.70;;
78563;SDS011;67856;47.754;19.088;2023-04-03T05:00:22;1.50;;;0.90;;
78563;SDS011;67856;47.754;19.088;2023-04-03T05:03:41;2.75;;;1.17;;
78563;SDS011;67856;47.754;19.088;2023-04-03T05:07:02;3.30;;;1.17;;
78563;SDS011;67856;47.754;19.088;2023-04-03T05:10:22;3.45;;;1.02;;
78563;SDS011;67856;47.754;19.088;2023-04-03T05:13:42;4.63;;;1.40;;
78563;SDS011;67856;47.754;19.088;2023-04-03T05:17:03;6.00;;;1.40;;
78563;SDS011;67856;47.754;19.088;2023-04-03T05:20:27;2.60;;;1.20;;
78563;SDS011;67856;47.754;19.088;2023-04-03T05:24:00;4.93;;;1.50;;
78563;SDS011;67856;47.754;19.088;2023-04-03T05:27:22;4.78;;;1.60;;
78563;SDS011;67856;47.754;19.088;2023-04-03T05:30:56;5.57;;;1.40;;
78563;SDS011;67856;47.754;19.088;2023-04-03T05:34:18;3.17;;;1.50;;
78563;SDS011;67856;47.754;19.088;2023-04-03T05:37:39;2.78;;;1.52;;
78563;SDS011;67856;47.754;19.088;2023-04-03T05:40:59;3.15;;;1.45;;
78563;SDS011;67856;47.754;19.088;2023-04-03T05:44:21;3.35;;;1.85;;
78563;SDS011;67856;47.754;19.088;2023-04-03T05:47:41;7.87;;;1.70;;
78563;SDS011;67856;47.754;19.088;2023-04-03T05:51:05;6.93;;;1.50;;
78563;SDS011;67856;47.754;19.088;2023-04-03T05:54:28;3.63;;;1.35;;
78563;SDS011;67856;47.754;19.088;2023-04-03T05:57:53;9.38;;;1.60;;
78563;SDS011;67856;47.754;19.088;2023-04-03T06:01:14;8.05;;;1.40;;
78563;SDS011;67856;47.754;19.088;2023-04-03T06:04:36;5.57;;;1.57;;
78563;SDS011;67856;47.754;19.088;2023-04-03T06:07:55;7.67;;;1.67;;
78563;SDS011;67856;47.754;19.088;2023-04-03T06:11:16;7.68;;;1.52;;
78563;SDS011;67856;47.754;19.088;2023-04-03T06:14:36;9.13;;;1.45;;
78563;SDS011;67856;47.754;19.088;2023-04-03T06:17:56;6.60;;;1.45;;
78563;SDS011;67856;47.754;19.088;2023-04-03T06:21:16;4.97;;;1.20;;
78563;SDS011;67856;47.754;19.088;2023-04-03T06:24:37;5.63;;;1.60;;
78563;SDS011;67856;47.754;19.088;2023-04-03T06:27:57;7.95;;;1.42;;
78563;SDS011;67856;47.754;19.088;2023-04-03T06:31:17;5.55;;;1.70;;
78563;SDS011;67856;47.754;19.088;2023-04-03T06:34:39;10.15;;;1.55;;
78563;SDS011;67856;47.754;19.088;2023-04-03T06:37:59;6.03;;;1.37;;
78563;SDS011;67856;47.754;19.088;2023-04-03T06:41:19;10.33;;;1.57;;
78563;SDS011;67856;47.754;19.088;2023-04-03T06:44:39;8.07;;;1.63;;
78563;SDS011;67856;47.754;19.088;2023-04-03T06:47:59;5.90;;;1.45;;
78563;SDS011;67856;47.754;19.088;2023-04-03T06:51:23;8.13;;;1.42;;
78563;SDS011;67856;47.754;19.088;2023-04-03T06:54:44;10.37;;;1.40;;
78563;SDS011;67856;47.754;19.088;2023-04-03T06:58:04;8.70;;;1.50;;
78563;SDS011;67856;47.754;19.088;2023-04-03T07:01:25;6.78;;;1.60;;
78563;SDS011;67856;47.754;19.088;2023-04-03T07:04:47;4.13;;;1.30;;
78563;SDS011;67856;47.754;19.088;2023-04-03T07:08:06;3.92;;;1.20;;
78563;SDS011;67856;47.754;19.088;2023-04-03T07:11:26;5.77;;;1.50;;
78563;SDS011;67856;47.754;19.088;2023-04-03T07:14:46;9.07;;;1.40;;
78563;SDS011;67856;47.754;19.088;2023-04-03T07:18:06;8.23;;;1.50;;
78563;SDS011;67856;47.754;19.088;2023-04-03T07:21:26;29.60;;;3.10;;
78563;SDS011;67856;47.754;19.088;2023-04-03T07:24:48;40.20;;;3.90;;
78563;SDS011;67856;47.754;19.088;2023-04-03T07:28:08;73.53;;;6.17;;
78563;SDS011;67856;47.754;19.088;2023-04-03T07:31:28;22.00;;;3.13;;
78563;SDS011;67856;47.754;19.088;2023-04-03T07:34:47;21.40;;;2.90;;
78563;SDS011;67856;47.754;19.088;2023-04-03T07:38:07;21.50;;;2.47;;
78563;SDS011;67856;47.754;19.088;2023-04-03T07:41:28;21.08;;;2.10;;
78563;SDS011;67856;47.754;19.088;2023-04-03T07:44:48;17.73;;;2.20;;
78563;SDS011;67856;47.754;19.088;2023-04-03T07:48:08;15.47;;;2.37;;
78563;SDS011;67856;47.754;19.088;2023-04-03T07:51:29;12.93;;;2.35;;
78563;SDS011;67856;47.754;19.088;2023-04-03T07:54:49;13.93;;;1.92;;
78563;SDS011;67856;47.754;19.088;2023-04-03T07:58:13;15.25;;;2.10;;
78563;SDS011;67856;47.754;19.088;2023-04-03T08:01:35;11.47;;;1.80;;
78563;SDS011;67856;47.754;19.088;2023-04-03T08:04:55;15.10;;;1.60;;
78563;SDS011;67856;47.754;19.088;2023-04-03T08:08:16;8.55;;;1.05;;
78563;SDS011;67856;47.754;19.088;2023-04-03T08:11:38;13.40;;;1.80;;
78563;SDS011;67856;47.754;19.088;2023-04-03T08:15:05;6.65;;;1.70;;
78563;SDS011;67856;47.754;19.088;2023-04-03T08:18:27;13.27;;;1.60;;
78563;SDS011;67856;47.754;19.088;2023-04-03T08:21:47;7.33;;;1.40;;
78563;SDS011;67856;47.754;19.088;2023-04-03T08:25:07;19.48;;;1.80;;
78563;SDS011;67856;47.754;19.088;2023-04-03T08:28:31;7.85;;;1.45;;
78563;SDS011;67856;47.754;19.088;2023-04-03T08:31:33;12.05;;;1.25;;
78563;SDS011;67856;47.754;19.088;2023-04-03T08:34:36;13.60;;;1.73;;
78563;SDS011;67856;47.754;19.088;2023-04-03T08:37:41;10.87;;;1.93;;
78563;SDS011;67856;47.754;19.088;2023-04-03T08:40:44;8.65;;;1.60;;
78563;SDS011;67856;47.754;19.088;2023-04-03T08:43:56;14.68;;;1.75;;
78563;SDS011;67856;47.754;19.088;2023-04-03T08:47:38;12.25;;;1.52;;
78563;SDS011;67856;47.754;19.088;2023-04-03T08:50:43;11.40;;;1.70;;
78563;SDS011;67856;47.754;19.088;2023-04-03T08:53:55;11.23;;;1.30;;
78563;SDS011;67856;47.754;19.088;2023-04-03T08:56:59;11.68;;;2.00;;
78563;SDS011;67856;47.754;19.088;2023-04-03T09:03:46;10.57;;;1.60;;
78563;SDS011;67856;47.754;19.088;2023-04-03T09:06:50;13.57;;;1.50;;
78563;SDS011;67856;47.754;19.088;2023-04-03T09:09:59;9.97;;;1.43;;
78563;SDS011;67856;47.754;19.088;2023-04-03T09:13:11;11.00;;;1.38;;
78563;SDS011;67856;47.754;19.088;2023-04-03T09:26:46;9.00;;;1.73;;
78563;SDS011;67856;47.754;19.088;2023-04-03T09:29:53;10.52;;;1.50;;
78563;SDS011;67856;47.754;19.088;2023-04-03T09:32:57;15.73;;;1.40;;
78563;SDS011;67856;47.754;19.088;2023-04-03T09:36:03;9.65;;;1.38;;
78563;SDS011;67856;47.754;19.088;2023-04-03T09:39:19;11.87;;;1.40;;
78563;SDS011;67856;47.754;19.088;2023-04-03T09:42:24;10.37;;;1.70;;
78563;SDS011;67856;47.754;19.088;2023-04-03T09:45:29;10.52;;;1.45;;
78563;SDS011;67856;47.754;19.088;2023-04-03T09:48:37;6.25;;;1.13;;
78563;SDS011;67856;47.754;19.088;2023-04-03T09:51:39;6.72;;;1.50;;
78563;SDS011;67856;47.754;19.088;2023-04-03T09:54:46;7.87;;;1.50;;
78563;SDS011;67856;47.754;19.088;2023-04-03T09:57:48;11.10;;;1.60;;
78563;SDS011;67856;47.754;19.088;2023-04-03T10:01:00;10.23;;;1.40;;
78563;SDS011;67856;47.754;19.088;2023-04-03T10:04:16;5.97;;;1.10;;
78563;SDS011;67856;47.754;19.088;2023-04-03T10:07:29;6.28;;;0.90;;
78563;SDS011;67856;47.754;19.088;2023-04-03T10:10:34;6.93;;;1.13;;
78563;SDS011;67856;47.754;19.088;2023-04-03T10:13:51;11.23;;;1.80;;
78563;SDS011;67856;47.754;19.088;2023-04-03T10:23:42;9.48;;;1.15;;
78563;SDS011;67856;47.754;19.088;2023-04-03T10:26:57;2.90;;;0.77;;
78563;SDS011;67856;47.754;19.088;2023-04-03T10:33:36;7.18;;;0.80;;
78563;SDS011;67856;47.754;19.088;2023-04-03T10:40:02;6.47;;;1.25;;
78563;SDS011;67856;47.754;19.088;2023-04-03T10:43:21;10.00;;;1.50;;
78563;SDS011;67856;47.754;19.088;2023-04-03T10:53:45;11.13;;;1.48;;
78563;SDS011;67856;47.754;19.088;2023-04-03T11:00:00;9.73;;;1.43;;
78563;SDS011;67856;47.754;19.088;2023-04-03T11:03:07;15.70;;;1.47;;
78563;SDS011;67856;47.754;19.088;2023-04-03T11:06:17;14.82;;;1.42;;
78563;SDS011;67856;47.754;19.088;2023-04-03T11:09:41;10.30;;;1.40;;
78563;SDS011;67856;47.754;19.088;2023-04-03T11:12:46;11.82;;;1.27;;
78563;SDS011;67856;47.754;19.088;2023-04-03T11:15:52;13.03;;;1.20;;
78563;SDS011;67856;47.754;19.088;2023-04-03T11:22:08;10.07;;;1.40;;
78563;SDS011;67856;47.754;19.088;2023-04-03T11:25:22;9.07;;;1.40;;
78563;SDS011;67856;47.754;19.088;2023-04-03T11:28:26;13.75;;;1.63;;
78563;SDS011;67856;47.754;19.088;2023-04-03T11:31:42;8.70;;;1.37;;
78563;SDS011;67856;47.754;19.088;2023-04-03T11:35:06;6.43;;;1.10;;
78563;SDS011;67856;47.754;19.088;2023-04-03T11:38:10;8.60;;;1.30;;
78563;SDS011;67856;47.754;19.088;2023-04-03T11:41:27;10.52;;;1.23;;
78563;SDS011;67856;47.754;19.088;2023-04-03T11:47:46;11.57;;;1.40;;
78563;SDS011;67856;47.754;19.088;2023-04-03T11:50:51;12.30;;;1.37;;
78563;SDS011;67856;47.754;19.088;2023-04-03T11:53:54;9.95;;;1.70;;
78563;SDS011;67856;47.754;19.088;2023-04-03T11:56:56;11.88;;;1.30;;
78563;SDS011;67856;47.754;19.088;2023-04-03T11:59:58;8.30;;;1.20;;
78563;SDS011;67856;47.754;19.088;2023-04-03T12:03:02;7.13;;;1.55;;
78563;SDS011;67856;47.754;19.088;2023-04-03T12:09:28;17.83;;;1.30;;
78563;SDS011;67856;47.754;19.088;2023-04-03T12:15:44;7.85;;;1.23;;
78563;SDS011;67856;47.754;19.088;2023-04-03T12:22:25;10.67;;;1.50;;
78563;SDS011;67856;47.754;19.088;2023-04-03T12:25:47;12.23;;;1.60;;
78563;SDS011;67856;47.754;19.088;2023-04-03T12:28:52;8.73;;;1.13;;
78563;SDS011;67856;47.754;19.088;2023-04-03T12:38:58;10.13;;;1.53;;
78563;SDS011;67856;47.754;19.088;2023-04-03T12:45:21;11.40;;;1.50;;
78563;SDS011;67856;47.754;19.088;2023-04-03T12:48:26;8.50;;;1.30;;
78563;SDS011;67856;47.754;19.088;2023-04-03T12:51:43;8.15;;;1.42;;
78563;SDS011;67856;47.754;19.088;2023-04-03T12:54:47;14.37;;;1.60;;
78563;SDS011;67856;47.754;19.088;2023-04-03T12:57:50;14.27;;;1.60;;
78563;SDS011;67856;47.754;19.088;2023-04-03T13:04:24;10.00;;;1.10;;
78563;SDS011;67856;47.754;19.088;2023-04-03T13:07:28;10.37;;;1.13;;
78563;SDS011;67856;47.754;19.088;2023-04-03T13:10:43;12.60;;;1.57;;
78563;SDS011;67856;47.754;19.088;2023-04-03T13:17:03;12.73;;;1.30;;
78563;SDS011;67856;47.754;19.088;2023-04-03T13:20:10;9.95;;;1.35;;
78563;SDS011;67856;47.754;19.088;2023-04-03T13:23:14;13.33;;;1.80;;
78563;SDS011;67856;47.754;19.088;2023-04-03T13:26:20;13.47;;;1.10;;
78563;SDS011;67856;47.754;19.088;2023-04-03T13:29:27;9.25;;;1.33;;
78563;SDS011;67856;47.754;19.088;2023-04-03T13:32:33;10.07;;;1.00;;
78563;SDS011;67856;47.754;19.088;2023-04-03T13:35:37;10.63;;;1.20;;
78563;SDS011;67856;47.754;19.088;2023-04-03T13:38:41;10.23;;;1.40;;
78563;SDS011;67856;47.754;19.088;2023-04-03T13:41:48;15.00;;;1.43;;
78563;SDS011;67856;47.754;19.088;2023-04-03T13:48:26;7.20;;;1.13;;
78563;SDS011;67856;47.754;19.088;2023-04-03T13:51:28;6.18;;;1.10;;
78563;SDS011;67856;47.754;19.088;2023-04-03T13:54:33;8.80;;;1.60;;
78563;SDS011;67856;47.754;19.088;2023-04-03T13:57:47;9.37;;;1.17;;
78563;SDS011;67856;47.754;19.088;2023-04-03T14:00:52;12.73;;;1.10;;
78563;SDS011;67856;47.754;19.088;2023-04-03T14:07:39;16.42;;;1.40;;
78563;SDS011;67856;47.754;19.088;2023-04-03T14:10:41;10.57;;;1.20;;
78563;SDS011;67856;47.754;19.088;2023-04-03T14:13:44;13.60;;;1.40;;
78563;SDS011;67856;47.754;19.088;2023-04-03T14:16:50;14.32;;;1.30;;
78563;SDS011;67856;47.754;19.088;2023-04-03T14:19:55;7.95;;;1.27;;
78563;SDS011;67856;47.754;19.088;2023-04-03T14:22:59;10.77;;;1.10;;
78563;SDS011;67856;47.754;19.088;2023-04-03T14:26:01;10.55;;;1.10;;
78563;SDS011;67856;47.754;19.088;2023-04-03T14:29:04;6.90;;;1.00;;
78563;SDS011;67856;47.754;19.088;2023-04-03T14:32:06;12.40;;;1.10;;
78563;SDS011;67856;47.754;19.088;2023-04-03T14:35:16;10.35;;;1.42;;
78563;SDS011;67856;47.754;19.088;2023-04-03T14:38:37;14.80;;;1.10;;
78563;SDS011;67856;47.754;19.088;2023-04-03T14:41:40;11.93;;;0.97;;
78563;SDS011;67856;47.754;19.088;2023-04-03T14:44:42;9.70;;;1.03;;
78563;SDS011;67856;47.754;19.088;2023-04-03T14:47:49;6.25;;;1.20;;
78563;SDS011;67856;47.754;19.088;2023-04-03T14:50:54;9.35;;;1.52;;
78563;SDS011;67856;47.754;19.088;2023-04-03T14:54:11;7.32;;;1.10;;
78563;SDS011;67856;47.754;19.088;2023-04-03T14:57:16;7.00;;;1.00;;
78563;SDS011;67856;47.754;19.088;2023-04-03T15:00:20;6.00;;;1.07;;
78563;SDS011;67856;47.754;19.088;2023-04-03T15:03:23;5.55;;;1.02;;
78563;SDS011;67856;47.754;19.088;2023-04-03T15:06:26;8.20;;;0.95;;
78563;SDS011;67856;47.754;19.088;2023-04-03T15:09:28;6.00;;;0.80;;
78563;SDS011;67856;47.754;19.088;2023-04-03T15:12:31;4.40;;;1.00;;
78563;SDS011;67856;47.754;19.088;2023-04-03T15:15:33;5.17;;;0.80;;
78563;SDS011;67856;47.754;19.088;2023-04-03T15:18:37;7.00;;;1.15;;
78563;SDS011;67856;47.754;19.088;2023-04-03T15:21:40;6.10;;;0.90;;
78563;SDS011;67856;47.754;19.088;2023-04-03T15:24:43;6.40;;;1.08;;
78563;SDS011;67856;47.754;19.088;2023-04-03T15:27:45;8.43;;;1.20;;
78563;SDS011;67856;47.754;19.088;2023-04-03T15:30:48;4.40;;;0.90;;
78563;SDS011;67856;47.754;19.088;2023-04-03T15:33:50;3.78;;;0.98;;
78563;SDS011;67856;47.754;19.088;2023-04-03T15:36:52;42.67;;;3.78;;
78563;SDS011;67856;47.754;19.088;2023-04-03T15:39:55;21.25;;;2.20;;
78563;SDS011;67856;47.754;19.088;2023-04-03T15:42:57;18.53;;;2.00;;
78563;SDS011;67856;47.754;19.088;2023-04-03T15:46:00;13.93;;;2.10;;
78563;SDS011;67856;47.754;19.088;2023-04-03T15:49:03;18.27;;;1.80;;
78563;SDS011;67856;47.754;19.088;2023-04-03T15:52:06;10.45;;;1.60;;
78563;SDS011;67856;47.754;19.088;2023-04-03T15:55:08;10.77;;;1.60;;
78563;SDS011;67856;47.754;19.088;2023-04-03T15:58:11;12.77;;;1.60;;
78563;SDS011;67856;47.754;19.088;2023-04-03T16:01:13;9.80;;;1.50;;
78563;SDS011;67856;47.754;19.088;2023-04-03T16:04:16;12.63;;;1.40;;
78563;SDS011;67856;47.754;19.088;2023-04-03T16:07:20;15.73;;;2.08;;
78563;SDS011;67856;47.754;19.088;2023-04-03T16:10:22;12.13;;;2.47;;
78563;SDS011;67856;47.754;19.088;2023-04-03T16:13:44;8.00;;;1.57;;
78563;SDS011;67856;47.754;19.088;2023-04-03T16:16:46;9.63;;;1.47;;
78563;SDS011;67856;47.754;19.088;2023-04-03T16:19:49;13.68;;;2.40;;
78563;SDS011;67856;47.754;19.088;2023-04-03T16:22:51;12.68;;;1.75;;
78563;SDS011;67856;47.754;19.088;2023-04-03T16:25:54;13.48;;;1.83;;
78563;SDS011;67856;47.754;19.088;2023-04-03T16:28:56;15.90;;;2.10;;
78563;SDS011;67856;47.754;19.088;2023-04-03T16:31:58;6.87;;;2.10;;
78563;SDS011;67856;47.754;19.088;2023-04-03T16:35:01;11.55;;;1.70;;
78563;SDS011;67856;47.754;19.088;2023-04-03T16:38:04;6.53;;;1.70;;
78563;SDS011;67856;47.754;19.088;2023-04-03T16:41:06;5.88;;;1.80;;
78563;SDS011;67856;47.754;19.088;2023-04-03T16:44:09;10.07;;;1.60;;
78563;SDS011;67856;47.754;19.088;2023-04-03T16:47:12;6.03;;;1.77;;
78563;SDS011;67856;47.754;19.088;2023-04-03T16:50:16;7.90;;;1.65;;
78563;SDS011;67856;47.754;19.088;2023-04-03T16:53:19;6.93;;;1.80;;
78563;SDS011;67856;47.754;19.088;2023-04-03T16:56:22;8.38;;;1.70;;
78563;SDS011;67856;47.754;19.088;2023-04-03T16:59:25;9.43;;;1.60;;
78563;SDS011;67856;47.754;19.088;2023-04-03T17:02:27;7.10;;;2.00;;
78563;SDS011;67856;47.754;19.088;2023-04-03T17:05:31;6.25;;;1.88;;
78563;SDS011;67856;47.754;19.088;2023-04-03T17:08:34;4.97;;;1.35;;
78563;SDS011;67856;47.754;19.088;2023-04-03T17:11:36;11.25;;;1.55;;
78563;SDS011;67856;47.754;19.088;2023-04-03T17:14:40;6.43;;;1.50;;
78563;SDS011;67856;47.754;19.088;2023-04-03T17:17:42;11.80;;;1.30;;
78563;SDS011;67856;47.754;19.088;2023-04-03T17:20:45;6.22;;;1.45;;
78563;SDS011;67856;47.754;19.088;2023-04-03T17:23:50;11.55;;;1.95;;
78563;SDS011;67856;47.754;19.088;2023-04-03T17:26:59;6.57;;;1.60;;
78563;SDS011;67856;47.754;19.088;2023-04-03T17:30:02;7.60;;;1.77;;
78563;SDS011;67856;47.754;19.088;2023-04-03T17:33:05;7.47;;;1.30;;
78563;SDS011;67856;47.754;19.088;2023-04-03T17:36:08;8.15;;;1.60;;
78563;SDS011;67856;47.754;19.088;2023-04-03T17:39:10;9.18;;;1.83;;
78563;SDS011;67856;47.754;19.088;2023-04-03T17:42:13;5.30;;;1.70;;
78563;SDS011;67856;47.754;19.088;2023-04-03T17:45:16;6.33;;;1.37;;
78563;SDS011;67856;47.754;19.088;2023-04-03T17:48:18;5.30;;;1.87;;
78563;SDS011;67856;47.754;19.088;2023-04-03T17:51:22;5.47;;;1.58;;
78563;SDS011;67856;47.754;19.088;2023-04-03T17:54:24;5.75;;;1.58;;
78563;SDS011;67856;47.754;19.088;2023-04-03T17:57:27;5.30;;;2.03;;
78563;SDS011;67856;47.754;19.088;2023-04-03T18:00:29;5.87;;;1.23;;
78563;SDS011;67856;47.754;19.088;2023-04-03T18:03:31;9.80;;;1.43;;
78563;SDS011;67856;47.754;19.088;2023-04-03T18:06:39;4.07;;;1.65;;
78563;SDS011;67856;47.754;19.088;2023-04-03T18:09:43;4.95;;;1.50;;
78563;SDS011;67856;47.754;19.088;2023-04-03T18:12:47;5.97;;;1.50;;
78563;SDS011;67856;47.754;19.088;2023-04-03T18:15:50;5.87;;;1.40;;
78563;SDS011;67856;47.754;19.088;2023-04-03T18:18:52;5.13;;;1.20;;
78563;SDS011;67856;47.754;19.088;2023-04-03T18:22:15;4.70;;;1.30;;
78563;SDS011;67856;47.754;19.088;2023-04-03T18:25:18;5.70;;;1.40;;
78563;SDS011;67856;47.754;19.088;2023-04-03T18:28:21;6.25;;;1.67;;
78563;SDS011;67856;47.754;19.088;2023-04-03T18:31:23;4.57;;;1.30;;
78563;SDS011;67856;47.754;19.088;2023-04-03T18:34:27;4.23;;;1.40;;
78563;SDS011;67856;47.754;19.088;2023-04-03T18:37:30;4.07;;;1.42;;
78563;SDS011;67856;47.754;19.088;2023-04-03T18:40:32;6.38;;;1.63;;
78563;SDS011;67856;47.754;19.088;2023-04-03T18:43:35;3.13;;;1.25;;
78563;SDS011;67856;47.754;19.088;2023-04-03T18:46:38;4.47;;;1.30;;
78563;SDS011;67856;47.754;19.088;2023-04-03T18:49:41;8.00;;;1.40;;
78563;SDS011;67856;47.754;19.088;2023-04-03T18:52:44;4.43;;;1.30;;
78563;SDS011;67856;47.754;19.088;2023-04-03T18:55:48;7.30;;;1.35;;
78563;SDS011;67856;47.754;19.088;2023-04-03T18:58:50;4.55;;;1.20;;
78563;SDS011;67856;47.754;19.088;2023-04-03T19:01:53;3.40;;;1.20;;
78563;SDS011;67856;47.754;19.088;2023-04-03T19:04:59;4.73;;;1.57;;
78563;SDS011;67856;47.754;19.088;2023-04-03T19:08:02;4.72;;;1.33;;
78563;SDS011;67856;47.754;19.088;2023-04-03T19:11:05;3.95;;;1.35;;
78563;SDS011;67856;47.754;19.088;2023-04-03T19:14:08;5.13;;;1.20;;
78563;SDS011;67856;47.754;19.088;2023-04-03T19:17:13;3.93;;;1.80;;
78563;SDS011;67856;47.754;19.088;2023-04-03T19:20:16;3.90;;;1.50;;
78563;SDS011;67856;47.754;19.088;2023-04-03T19:23:19;5.97;;;1.85;;
78563;SDS011;67856;47.754;19.088;2023-04-03T19:26:21;6.53;;;2.75;;
78563;SDS011;67856;47.754;19.088;2023-04-03T19:29:24;4.88;;;1.52;;
78563;SDS011;67856;47.754;19.088;2023-04-03T19:32:26;5.27;;;1.30;;
78563;SDS011;67856;47.754;19.088;2023-04-03T19:35:29;3.07;;;1.07;;
78563;SDS011;67856;47.754;19.088;2023-04-03T19:38:32;4.85;;;1.48;;
78563;SDS011;67856;47.754;19.088;2023-04-03T19:41:34;4.32;;;1.38;;
78563;SDS011;67856;47.754;19.088;2023-04-03T19:44:38;4.05;;;1.40;;
78563;SDS011;67856;47.754;19.088;2023-04-03T19:47:40;3.70;;;1.20;;
78563;SDS011;67856;47.754;19.088;2023-04-03T19:50:43;3.60;;;1.33;;
78563;SDS011;67856;47.754;19.088;2023-04-03T19:53:47;3.40;;;1.27;;
78563;SDS011;67856;47.754;19.088;2023-04-03T19:56:50;3.88;;;1.20;;
78563;SDS011;67856;47.754;19.088;2023-04-03T19:59:52;3.13;;;1.45;;
78563;SDS011;67856;47.754;19.088;2023-04-03T20:02:55;6.23;;;1.30;;
78563;SDS011;67856;47.754;19.088;2023-04-03T20:05:57;3.70;;;1.30;;
78563;SDS011;67856;47.754;19.088;2023-04-03T20:09:00;4.57;;;1.23;;
78563;SDS011;67856;47.754;19.088;2023-04-03T20:12:03;5.10;;;1.50;;
78563;SDS011;67856;47.754;19.088;2023-04-03T20:15:06;5.10;;;1.30;;